| time (UTC) | temp F | wind direction | speed MPH | gust MPH | rain 1hr in | rain 24hr in | rain mn in | humidity % | barometer mb |
| 20260506162607 | 55 | 336 | 7.0 | 12.0 | 0.00 | 0.18 | 0.02 | 52 | 1018.7 |
| 20260506162107 | 55 | 0 | 7.0 | 11.0 | 0.00 | 0.20 | 0.02 | 55 | 1018.9 |
| 20260506161608 | 55 | 0 | 5.0 | 10.0 | 0.00 | 0.21 | 0.02 | 56 | 1018.9 |
| 20260506160106 | 55 | 0 | 9.0 | 17.0 | 0.00 | 0.29 | 0.02 | 56 | 1018.7 |
| 20260506155603 | 55 | 0 | 10.0 | 17.0 | 0.00 | 0.30 | 0.02 | 55 | 1018.6 |
| 20260506155102 | 55 | 0 | 7.0 | 13.0 | 0.00 | 0.33 | 0.02 | 58 | 1018.6 |
| 20260506154602 | 55 | 353 | 9.0 | 13.0 | 0.00 | 0.35 | 0.02 | 52 | 1018.6 |
| 20260506154102 | 55 | 353 | 5.0 | 9.0 | 0.00 | 0.36 | 0.02 | 61 | 1018.6 |
| 20260506153601 | 55 | 0 | 4.0 | 10.0 | 0.00 | 0.36 | 0.02 | 56 | 1018.6 |
| 20260506153102 | 55 | 0 | 7.0 | 11.0 | 0.00 | 0.36 | 0.02 | 58 | 1018.6 |
| 20260506152603 | 55 | 336 | 4.0 | 13.0 | 0.00 | 0.36 | 0.02 | 55 | 1018.5 |
| 20260506151101 | 54 | 16 | 5.0 | 11.0 | 0.00 | 0.38 | 0.02 | 62 | 1018.3 |
| 20260506150602 | 54 | 316 | 5.0 | 12.0 | 0.00 | 0.38 | 0.02 | 62 | 1018.5 |
| 20260506145600 | 53 | 329 | 5.0 | 12.0 | 0.00 | 0.38 | 0.02 | 63 | 1018.2 |
| 20260506145101 | 53 | 293 | 6.0 | 12.0 | 0.00 | 0.38 | 0.02 | 63 | 1018.1 |
| 20260506144600 | 53 | 337 | 6.0 | 13.0 | 0.00 | 0.38 | 0.02 | 65 | 1018.1 |
| 20260506144100 | 53 | 347 | 7.0 | 13.0 | 0.00 | 0.38 | 0.02 | 65 | 1017.9 |
| 20260506143600 | 52 | 0 | 4.0 | 12.0 | 0.00 | 0.38 | 0.02 | 66 | 1018.1 |
| 20260506142600 | 53 | 333 | 5.0 | 14.0 | 0.00 | 0.39 | 0.02 | 64 | 1018.3 |
| 20260506142100 | 53 | 316 | 6.0 | 13.0 | 0.00 | 0.39 | 0.02 | 66 | 1018.3 |
| 20260506141559 | 53 | 353 | 6.0 | 12.0 | 0.00 | 0.39 | 0.02 | 67 | 1018.4 |
| 20260506141100 | 52 | 303 | 6.0 | 10.0 | 0.00 | 0.39 | 0.02 | 68 | 1018.5 |
| 20260506140559 | 52 | 350 | 7.0 | 10.0 | 0.00 | 0.39 | 0.02 | 68 | 1018.4 |
| 20260506140100 | 52 | 324 | 5.0 | 9.0 | 0.00 | 0.39 | 0.02 | 71 | 1018.3 |
| 20260506135600 | 51 | 357 | 5.0 | 9.0 | 0.00 | 0.39 | 0.02 | 72 | 1018.1 |
| 20260506135100 | 51 | 307 | 5.0 | 9.0 | 0.00 | 0.40 | 0.02 | 74 | 1018.2 |
| 20260506134559 | 51 | 310 | 5.0 | 9.0 | 0.00 | 0.40 | 0.02 | 75 | 1017.9 |
| 20260506134059 | 50 | 334 | 4.0 | 9.0 | 0.00 | 0.40 | 0.02 | 77 | 1017.8 |
| 20260506133558 | 50 | 241 | 2.0 | 6.0 | 0.00 | 0.41 | 0.02 | 79 | 1017.9 |
| 20260506132559 | 49 | 296 | 2.0 | 5.0 | 0.00 | 0.42 | 0.02 | 81 | 1017.8 |
| 20260506132059 | 49 | 276 | 3.0 | 5.0 | 0.00 | 0.42 | 0.02 | 82 | 1017.8 |
| 20260506131558 | 49 | 312 | 2.0 | 5.0 | 0.00 | 0.42 | 0.02 | 83 | 1017.5 |
| 20260506130559 | 48 | 337 | 2.0 | 5.0 | 0.00 | 0.42 | 0.02 | 85 | 1017.3 |
| 20260506130058 | 47 | 310 | 3.0 | 5.0 | 0.00 | 0.42 | 0.02 | 85 | 1017.1 |
| 20260506125558 | 47 | 314 | 1.0 | 3.0 | 0.00 | 0.42 | 0.02 | 87 | 1017.0 |
| 20260506125059 | 46 | 314 | 0.0 | 2.0 | 0.00 | 0.42 | 0.02 | 86 | 1016.9 |
| 20260506124558 | 46 | 314 | 0.0 | 0.0 | 0.00 | 0.42 | 0.02 | 87 | 1017.0 |
| 20260506124059 | 46 | 314 | 0.0 | 0.0 | 0.00 | 0.42 | 0.02 | 89 | 1017.0 |
| 20260506123558 | 46 | 314 | 0.0 | 0.0 | 0.00 | 0.42 | 0.02 | 89 | 1016.8 |
| 20260506123058 | 46 | 314 | 0.0 | 0.0 | 0.00 | 0.42 | 0.02 | 89 | 1016.8 |
| 20260506122557 | 46 | 314 | 0.0 | 1.0 | 0.00 | 0.42 | 0.02 | 90 | 1016.7 |
| 20260506121557 | 46 | 314 | 0.0 | 0.0 | 0.00 | 0.42 | 0.02 | 89 | 1016.6 |
| 20260506121057 | 45 | 314 | 0.0 | 2.0 | 0.00 | 0.42 | 0.02 | 89 | 1016.4 |
| 20260506120556 | 45 | 314 | 0.0 | 2.0 | 0.00 | 0.42 | 0.02 | 89 | 1016.3 |
| 20260506120056 | 46 | 314 | 1.0 | 2.0 | 0.00 | 0.42 | 0.02 | 89 | 1016.2 |
| 20260506115557 | 45 | 314 | 0.0 | 2.0 | 0.00 | 0.42 | 0.02 | 88 | 1016.1 |
| 20260506115057 | 45 | 314 | 0.0 | 2.0 | 0.00 | 0.42 | 0.02 | 88 | 1015.8 |
| 20260506114556 | 46 | 314 | 1.0 | 2.0 | 0.00 | 0.42 | 0.02 | 88 | 1015.9 |
| 20260506114056 | 46 | 314 | 0.0 | 0.0 | 0.00 | 0.42 | 0.02 | 87 | 1016.0 |
| 20260506113556 | 46 | 314 | 0.0 | 2.0 | 0.00 | 0.42 | 0.02 | 86 | 1015.9 |
| 20260506113056 | 46 | 314 | 0.0 | 4.0 | 0.00 | 0.42 | 0.02 | 85 | 1015.8 |
| 20260506112555 | 46 | 314 | 2.0 | 4.0 | 0.00 | 0.42 | 0.02 | 85 | 1016.0 |
| 20260506112055 | 46 | 329 | 2.0 | 4.0 | 0.00 | 0.42 | 0.02 | 86 | 1015.8 |
| 20260506111556 | 46 | 337 | 2.0 | 5.0 | 0.00 | 0.42 | 0.02 | 87 | 1015.9 |
| 20260506111055 | 46 | 0 | 2.0 | 6.0 | 0.00 | 0.42 | 0.02 | 87 | 1016.2 |
| 20260506110556 | 46 | 0 | 3.0 | 6.0 | 0.00 | 0.42 | 0.02 | 86 | 1016.1 |
| 20260506105555 | 45 | 357 | 5.0 | 9.0 | 0.00 | 0.42 | 0.02 | 87 | 1016.2 |
| 20260506104554 | 45 | 331 | 2.0 | 4.0 | 0.00 | 0.42 | 0.02 | 88 | 1016.0 |
| 20260506104054 | 46 | 326 | 2.0 | 4.0 | 0.00 | 0.42 | 0.02 | 89 | 1016.5 |
| 20260506103054 | 45 | 333 | 2.0 | 6.0 | 0.00 | 0.42 | 0.02 | 88 | 1016.6 |
| 20260506101554 | 45 | 345 | 2.0 | 6.0 | 0.00 | 0.42 | 0.02 | 91 | 1016.8 |
| 20260506101054 | 45 | 314 | 3.0 | 6.0 | 0.00 | 0.42 | 0.02 | 91 | 1016.7 |
| 20260506100554 | 45 | 321 | 2.0 | 5.0 | 0.00 | 0.42 | 0.02 | 91 | 1016.6 |
| 20260506100055 | 45 | 269 | 0.0 | 5.0 | 0.00 | 0.42 | 0.02 | 91 | 1016.6 |
| 20260506095554 | 45 | 313 | 2.0 | 5.0 | 0.00 | 0.42 | 0.02 | 91 | 1016.5 |
| 20260506095053 | 45 | 298 | 2.0 | 5.0 | 0.00 | 0.42 | 0.02 | 92 | 1016.3 |
| 20260506094553 | 45 | 285 | 2.0 | 5.0 | 0.00 | 0.42 | 0.02 | 92 | 1016.2 |
| 20260506094054 | 45 | 285 | 1.0 | 4.0 | 0.00 | 0.42 | 0.02 | 92 | 1015.7 |
| 20260506093553 | 45 | 283 | 1.0 | 4.0 | 0.00 | 0.42 | 0.02 | 92 | 1015.3 |
| 20260506092552 | 45 | 338 | 3.0 | 5.0 | 0.00 | 0.42 | 0.02 | 92 | 1014.6 |
| 20260506092052 | 45 | 14 | 1.0 | 3.0 | 0.00 | 0.42 | 0.02 | 92 | 1014.5 |
| 20260506091552 | 45 | 63 | 0.0 | 0.0 | 0.00 | 0.42 | 0.02 | 92 | 1014.6 |
| 20260506091052 | 45 | 63 | 0.0 | 0.0 | 0.00 | 0.42 | 0.02 | 92 | 1014.8 |
| 20260506090053 | 45 | 99 | 0.0 | 0.0 | 0.00 | 0.42 | 0.02 | 91 | 1014.9 |
| 20260506085552 | 45 | 99 | 0.0 | 0.0 | 0.00 | 0.42 | 0.02 | 91 | 1014.9 |
| 20260506085053 | 45 | 99 | 0.0 | 0.0 | 0.00 | 0.42 | 0.02 | 91 | 1014.8 |
| 20260506084552 | 45 | 99 | 0.0 | 0.0 | 0.00 | 0.42 | 0.02 | 91 | 1014.8 |
| 20260506084052 | 45 | 99 | 0.0 | 0.0 | 0.00 | 0.42 | 0.02 | 91 | 1014.8 |
| 20260506083552 | 45 | 99 | 0.0 | 0.0 | 0.00 | 0.42 | 0.02 | 91 | 1014.9 |
| 20260506083051 | 45 | 99 | 0.0 | 0.0 | 0.00 | 0.42 | 0.02 | 90 | 1014.9 |
| 20260506082552 | 45 | 99 | 0.0 | 0.0 | 0.00 | 0.42 | 0.02 | 90 | 1014.8 |
| 20260506082051 | 45 | 99 | 0.0 | 0.0 | 0.00 | 0.42 | 0.02 | 90 | 1014.9 |
| 20260506081552 | 45 | 99 | 0.0 | 0.0 | 0.00 | 0.42 | 0.02 | 90 | 1015.1 |
| 20260506080551 | 45 | 99 | 0.0 | 0.0 | 0.00 | 0.42 | 0.02 | 89 | 1014.9 |
| 20260506073050 | 46 | 63 | 0.0 | 0.0 | 0.00 | 0.44 | 0.02 | 86 | 1014.5 |
| 20260506072551 | 46 | 63 | 0.0 | 0.0 | 0.00 | 0.48 | 0.02 | 86 | 1014.3 |
| 20260506072050 | 46 | 63 | 0.0 | 3.0 | 0.01 | 0.50 | 0.02 | 85 | 1014.2 |
| 20260506071550 | 46 | 63 | 0.0 | 6.0 | 0.01 | 0.53 | 0.02 | 85 | 1014.1 |
| 20260506071051 | 46 | 68 | 1.0 | 6.0 | 0.01 | 0.54 | 0.02 | 85 | 1014.0 |
| 20260506070550 | 46 | 58 | 2.0 | 5.0 | 0.02 | 0.55 | 0.02 | 85 | 1014.2 |
| 20260506062049 | 46 | 1 | 6.0 | 10.0 | 0.01 | 0.78 | 0.01 | 84 | 1015.0 |
| 20260506061549 | 47 | 0 | 6.0 | 9.0 | 0.01 | 0.82 | 0.01 | 83 | 1015.0 |
| 20260506061049 | 47 | 0 | 5.0 | 9.0 | 0.01 | 0.84 | 0.01 | 82 | 1014.9 |
| 20260506060549 | 47 | 0 | 5.0 | 10.0 | 0.00 | 0.87 | 0.00 | 82 | 1014.9 |
| 20260506051047 | 49 | 3 | 10.0 | 21.0 | 0.00 | 0.99 | 0.00 | 72 | 1014.6 |
| 20260506050548 | 50 | 358 | 12.0 | 21.0 | 0.00 | 0.99 | 0.00 | 72 | 1014.6 |
| 20260506045047 | 50 | 354 | 7.0 | 12.0 | 0.00 | 0.99 | 0.99 | 73 | 1014.6 |
| 20260506044547 | 50 | 0 | 6.0 | 12.0 | 0.00 | 0.99 | 0.99 | 74 | 1014.3 |
| 20260506044046 | 50 | 0 | 6.0 | 12.0 | 0.00 | 0.99 | 0.99 | 74 | 1014.2 |
| 20260506043547 | 50 | 0 | 7.0 | 14.0 | 0.00 | 0.99 | 0.99 | 74 | 1014.2 |
| 20260506043047 | 50 | 0 | 9.0 | 15.0 | 0.00 | 0.99 | 0.99 | 73 | 1014.2 |
| 20260506042546 | 50 | 0 | 9.0 | 18.0 | 0.00 | 0.99 | 0.99 | 73 | 1014.2 |
| 20260506042046 | 50 | 1 | 13.0 | 18.0 | 0.00 | 0.99 | 0.99 | 71 | 1014.1 |
| 20260506041546 | 50 | 343 | 7.0 | 12.0 | 0.00 | 0.99 | 0.99 | 76 | 1014.1 |
| 20260506040545 | 50 | 326 | 7.0 | 13.0 | 0.00 | 0.99 | 0.99 | 76 | 1013.9 |
| 20260506040047 | 50 | 329 | 6.0 | 13.0 | 0.00 | 0.99 | 0.99 | 76 | 1013.9 |
| 20260506035546 | 50 | 0 | 6.0 | 10.0 | 0.00 | 0.99 | 0.99 | 78 | 1013.9 |
| 20260506035046 | 50 | 355 | 3.0 | 5.0 | 0.00 | 0.99 | 0.99 | 81 | 1013.8 |
| 20260506034545 | 50 | 343 | 4.0 | 6.0 | 0.00 | 0.99 | 0.99 | 79 | 1014.0 |
| 20260506034044 | 50 | 343 | 3.0 | 6.0 | 0.00 | 0.99 | 0.99 | 79 | 1013.6 |
| 20260506033544 | 50 | 340 | 2.0 | 5.0 | 0.00 | 0.99 | 0.99 | 81 | 1013.6 |
| 20260506033045 | 50 | 347 | 3.0 | 5.0 | 0.00 | 0.99 | 0.99 | 83 | 1013.6 |
| 20260506032545 | 50 | 351 | 4.0 | 5.0 | 0.00 | 0.99 | 0.99 | 84 | 1013.5 |
| 20260506031546 | 50 | 306 | 2.0 | 4.0 | 0.00 | 0.99 | 0.99 | 91 | 1013.5 |
| 20260506030544 | 50 | 324 | 1.0 | 3.0 | 0.00 | 0.99 | 0.99 | 92 | 1013.0 |
| 20260506030046 | 50 | 327 | 1.0 | 3.0 | 0.00 | 0.99 | 0.99 | 92 | 1012.8 |
| 20260506025544 | 50 | 68 | 1.0 | 2.0 | 0.00 | 0.99 | 0.99 | 92 | 1012.8 |
| 20260506025045 | 50 | 68 | 0.0 | 0.0 | 0.00 | 0.99 | 0.99 | 92 | 1012.6 |
| 20260506024045 | 49 | 68 | 0.0 | 2.0 | 0.00 | 0.99 | 0.99 | 91 | 1012.5 |
| 20260506023543 | 49 | 68 | 0.0 | 2.0 | 0.00 | 0.99 | 0.99 | 91 | 1012.5 |
| 20260506022544 | 49 | 68 | 0.0 | 1.0 | 0.00 | 0.99 | 0.99 | 89 | 1012.3 |
| 20260506022043 | 49 | 68 | 0.0 | 0.0 | 0.00 | 0.99 | 0.99 | 88 | 1012.2 |
| 20260506021045 | 50 | 68 | 0.0 | 0.0 | 0.00 | 0.99 | 0.99 | 87 | 1011.9 |
| 20260506020543 | 50 | 68 | 0.0 | 0.0 | 0.00 | 0.99 | 0.99 | 87 | 1011.8 |
| 20260506020044 | 50 | 68 | 0.0 | 0.0 | 0.00 | 0.99 | 0.99 | 87 | 1011.8 |
| 20260506015543 | 50 | 68 | 0.0 | 0.0 | 0.00 | 0.99 | 0.99 | 87 | 1011.8 |
| 20260506014542 | 51 | 68 | 0.0 | 1.0 | 0.00 | 0.99 | 0.99 | 86 | 1011.8 |
| 20260506014042 | 51 | 68 | 0.0 | 1.0 | 0.00 | 0.99 | 0.99 | 85 | 1011.8 |
| 20260506013542 | 51 | 68 | 0.0 | 0.0 | 0.00 | 0.99 | 0.99 | 86 | 1011.7 |
| 20260506012542 | 51 | 68 | 0.0 | 0.0 | 0.00 | 0.99 | 0.99 | 86 | 1011.3 |
| 20260506012042 | 52 | 68 | 0.0 | 0.0 | 0.00 | 0.99 | 0.99 | 85 | 1011.5 |
| 20260506011541 | 52 | 68 | 0.0 | 1.0 | 0.00 | 0.99 | 0.99 | 85 | 1011.5 |
| 20260506011042 | 52 | 68 | 0.0 | 2.0 | 0.00 | 0.99 | 0.99 | 85 | 1011.5 |
| 20260506010541 | 52 | 68 | 0.0 | 2.0 | 0.00 | 0.99 | 0.99 | 85 | 1011.2 |
| 20260506010041 | 52 | 0 | 1.0 | 2.0 | 0.00 | 0.99 | 0.99 | 85 | 1011.3 |
| 20260506005541 | 52 | 0 | 0.0 | 2.0 | 0.00 | 0.99 | 0.99 | 84 | 1011.5 |
| 20260506004541 | 53 | 0 | 1.0 | 2.0 | 0.00 | 0.99 | 0.99 | 84 | 1011.3 |
| 20260506003540 | 53 | 0 | 1.0 | 3.0 | 0.00 | 0.99 | 0.99 | 83 | 1011.2 |
| 20260506003041 | 53 | 0 | 1.0 | 3.0 | 0.00 | 0.99 | 0.99 | 82 | 1011.3 |
| 20260506002540 | 53 | 0 | 1.0 | 3.0 | 0.00 | 0.99 | 0.99 | 82 | 1011.3 |
| 20260506002040 | 53 | 0 | 2.0 | 3.0 | 0.00 | 0.99 | 0.99 | 82 | 1011.4 |
| 20260506001540 | 53 | 0 | 2.0 | 3.0 | 0.00 | 0.99 | 0.99 | 82 | 1011.4 |
| 20260506001041 | 53 | 0 | 2.0 | 4.0 | 0.00 | 0.99 | 0.99 | 82 | 1011.4 |
| 20260506000539 | 53 | 0 | 2.0 | 4.0 | 0.00 | 0.99 | 0.99 | 81 | 1011.5 |
| 20260506000040 | 53 | 1 | 2.0 | 5.0 | 0.00 | 0.99 | 0.99 | 82 | 1011.3 |
| 20260505235540 | 53 | 0 | 1.0 | 7.0 | 0.00 | 0.99 | 0.99 | 81 | 1011.2 |
| 20260505235039 | 53 | 0 | 4.0 | 7.0 | 0.00 | 0.99 | 0.99 | 80 | 1011.1 |
| 20260505234540 | 53 | 13 | 4.0 | 7.0 | 0.00 | 0.99 | 0.99 | 80 | 1011.2 |
| 20260505234039 | 53 | 0 | 3.0 | 6.0 | 0.00 | 0.99 | 0.99 | 80 | 1011.3 |
| 20260505233540 | 53 | 0 | 3.0 | 6.0 | 0.00 | 0.99 | 0.99 | 80 | 1011.1 |
| 20260505233040 | 53 | 0 | 4.0 | 6.0 | 0.00 | 0.99 | 0.99 | 80 | 1011.1 |
| 20260505232540 | 53 | 0 | 5.0 | 6.0 | 0.00 | 0.99 | 0.99 | 80 | 1011.0 |
| 20260505232039 | 53 | 8 | 4.0 | 6.0 | 0.00 | 0.99 | 0.99 | 80 | 1011.0 |
| 20260505231538 | 53 | 358 | 3.0 | 5.0 | 0.00 | 0.99 | 0.99 | 81 | 1011.3 |
| 20260505230538 | 53 | 0 | 5.0 | 6.0 | 0.00 | 0.99 | 0.99 | 81 | 1011.3 |
| 20260505230038 | 53 | 18 | 4.0 | 5.0 | 0.00 | 0.99 | 0.99 | 81 | 1011.2 |
| 20260505225038 | 52 | 0 | 3.0 | 4.0 | 0.00 | 0.99 | 0.99 | 80 | 1011.2 |
| 20260505224038 | 52 | 11 | 2.0 | 5.0 | 0.00 | 0.99 | 0.99 | 81 | 1011.3 |
| 20260505223039 | 52 | 7 | 3.0 | 5.0 | 0.00 | 0.99 | 0.99 | 81 | 1011.2 |
| 20260505222538 | 52 | 7 | 2.0 | 5.0 | 0.00 | 0.99 | 0.99 | 81 | 1011.2 |
| 20260505222037 | 52 | 7 | 3.0 | 6.0 | 0.00 | 0.99 | 0.99 | 81 | 1011.3 |
| 20260505221037 | 52 | 10 | 3.0 | 6.0 | 0.00 | 0.99 | 0.99 | 81 | 1011.2 |
| 20260505220537 | 52 | 10 | 4.0 | 6.0 | 0.00 | 0.99 | 0.99 | 81 | 1011.2 |
| 20260505220036 | 52 | 47 | 1.0 | 4.0 | 0.00 | 0.99 | 0.99 | 80 | 1011.4 |
| 20260505215537 | 52 | 23 | 1.0 | 5.0 | 0.00 | 0.99 | 0.99 | 80 | 1011.5 |
| 20260505215037 | 52 | 23 | 2.0 | 7.0 | 0.00 | 0.99 | 0.99 | 81 | 1011.5 |
| 20260505214536 | 51 | 8 | 4.0 | 7.0 | 0.00 | 0.99 | 0.99 | 81 | 1011.5 |
| 20260505214036 | 51 | 3 | 5.0 | 7.0 | 0.00 | 0.99 | 0.99 | 81 | 1011.4 |
| 20260505213537 | 51 | 16 | 4.0 | 7.0 | 0.00 | 0.99 | 0.99 | 83 | 1011.5 |
| 20260505213037 | 51 | 34 | 6.0 | 9.0 | 0.00 | 0.99 | 0.99 | 82 | 1011.2 |
| 20260505212536 | 51 | 0 | 5.0 | 9.0 | 0.00 | 0.99 | 0.99 | 83 | 1011.5 |
| 20260505212038 | 51 | 17 | 4.0 | 7.0 | 0.00 | 0.99 | 0.99 | 83 | 1011.5 |
| 20260505211536 | 51 | 351 | 4.0 | 7.0 | 0.00 | 0.99 | 0.99 | 84 | 1011.7 |
| 20260505211037 | 51 | 17 | 3.0 | 9.0 | 0.00 | 0.99 | 0.99 | 84 | 1011.8 |
| 20260505210536 | 51 | 0 | 6.0 | 9.0 | 0.00 | 0.99 | 0.99 | 84 | 1011.6 |
| 20260505210036 | 51 | 11 | 5.0 | 7.0 | 0.00 | 0.99 | 0.99 | 82 | 1011.6 |
| 20260505205535 | 50 | 16 | 4.0 | 7.0 | 0.00 | 0.99 | 0.99 | 83 | 1011.3 |
| 20260505205035 | 50 | 8 | 4.0 | 6.0 | 0.00 | 0.99 | 0.99 | 84 | 1011.3 |
| 20260505203535 | 50 | 344 | 3.0 | 6.0 | 0.00 | 0.99 | 0.99 | 84 | 1012.0 |
| 20260505203035 | 50 | 25 | 4.0 | 6.0 | 0.00 | 0.99 | 0.99 | 83 | 1011.7 |
| 20260505202535 | 50 | 55 | 4.0 | 7.0 | 0.00 | 0.99 | 0.99 | 83 | 1011.7 |
| 20260505202036 | 50 | 42 | 4.0 | 9.0 | 0.00 | 0.99 | 0.99 | 82 | 1011.7 |
| 20260505201534 | 50 | 38 | 5.0 | 10.0 | 0.00 | 0.99 | 0.99 | 84 | 1011.9 |
| 20260505201035 | 50 | 8 | 7.0 | 10.0 | 0.00 | 0.99 | 0.99 | 84 | 1011.9 |
| 20260505200534 | 50 | 353 | 4.0 | 6.0 | 0.00 | 0.99 | 0.99 | 86 | 1011.6 |
| 20260505195534 | 50 | 6 | 3.0 | 7.0 | 0.00 | 0.99 | 0.99 | 87 | 1011.9 |
| 20260505195034 | 49 | 23 | 4.0 | 7.0 | 0.00 | 0.99 | 0.99 | 86 | 1011.6 |
| 20260505194534 | 49 | 63 | 3.0 | 6.0 | 0.01 | 0.99 | 0.99 | 86 | 1011.5 |
| 20260505194034 | 49 | 31 | 3.0 | 6.0 | 0.02 | 0.99 | 0.99 | 87 | 1011.5 |
| 20260505193034 | 48 | 37 | 3.0 | 6.0 | 0.03 | 0.99 | 0.99 | 87 | 1011.6 |
| 20260505192533 | 48 | 41 | 2.0 | 6.0 | 0.04 | 0.99 | 0.99 | 87 | 1011.6 |
| 20260505192033 | 48 | 56 | 4.0 | 6.0 | 0.05 | 0.99 | 0.99 | 87 | 1011.8 |
| 20260505191533 | 48 | 35 | 4.0 | 5.0 | 0.05 | 0.99 | 0.99 | 87 | 1011.7 |
| 20260505191033 | 48 | 63 | 2.0 | 7.0 | 0.05 | 0.99 | 0.99 | 88 | 1011.7 |
| 20260505190532 | 48 | 73 | 4.0 | 9.0 | 0.05 | 0.99 | 0.99 | 88 | 1011.6 |
| 20260505190034 | 48 | 85 | 5.0 | 9.0 | 0.05 | 0.99 | 0.99 | 88 | 1011.6 |
| 20260505185532 | 48 | 37 | 4.0 | 7.0 | 0.05 | 0.94 | 0.99 | 88 | 1011.8 |
| 20260505184532 | 47 | 48 | 3.0 | 10.0 | 0.06 | 0.94 | 0.98 | 88 | 1011.9 |
| 20260505183532 | 47 | 38 | 5.0 | 10.0 | 0.07 | 0.94 | 0.96 | 88 | 1011.7 |
| 20260505183033 | 47 | 56 | 3.0 | 6.0 | 0.07 | 0.94 | 0.95 | 89 | 1011.8 |
| 20260505181531 | 47 | 10 | 5.0 | 7.0 | 0.05 | 0.94 | 0.94 | 90 | 1012.1 |
| 20260505181032 | 47 | 59 | 3.0 | 4.0 | 0.05 | 0.94 | 0.94 | 90 | 1012.1 |
| 20260505180531 | 47 | 90 | 1.0 | 5.0 | 0.05 | 0.94 | 0.94 | 90 | 1012.6 |
| 20260505180030 | 47 | 66 | 3.0 | 5.0 | 0.06 | 0.94 | 0.94 | 90 | 1012.5 |
| 20260505175533 | 47 | 80 | 3.0 | 5.0 | 0.06 | 0.88 | 0.94 | 90 | 1012.5 |
| 20260505175030 | 47 | 93 | 2.0 | 7.0 | 0.05 | 0.88 | 0.93 | 90 | 1012.6 |
| 20260505174529 | 47 | 104 | 2.0 | 7.0 | 0.04 | 0.88 | 0.92 | 89 | 1012.4 |
| 20260505173530 | 47 | 56 | 2.0 | 10.0 | 0.01 | 0.88 | 0.89 | 88 | 1012.5 |
| 20260505173030 | 47 | 38 | 6.0 | 11.0 | 0.03 | 0.88 | 0.89 | 87 | 1012.3 |
| 20260505172530 | 47 | 42 | 5.0 | 11.0 | 0.07 | 0.88 | 0.89 | 86 | 1012.6 |
| 20260505171530 | 47 | 69 | 4.0 | 14.0 | 0.10 | 0.88 | 0.89 | 87 | 1012.6 |
| 20260505171030 | 47 | 45 | 8.0 | 14.0 | 0.15 | 0.88 | 0.89 | 87 | 1012.5 |
| 20260505170530 | 47 | 47 | 6.0 | 14.0 | 0.16 | 0.88 | 0.89 | 89 | 1012.2 |
| 20260505170030 | 47 | 83 | 6.0 | 11.0 | 0.16 | 0.88 | 0.88 | 89 | 1012.1 |
| 20260505165030 | 47 | 62 | 7.0 | 15.0 | 0.21 | 0.72 | 0.88 | 89 | 1012.3 |
| 20260505164530 | 47 | 42 | 7.0 | 15.0 | 0.23 | 0.72 | 0.88 | 89 | 1012.1 |
| 20260505164029 | 47 | 65 | 7.0 | 15.0 | 0.23 | 0.72 | 0.88 | 89 | 1011.9 |
| 20260505163530 | 47 | 65 | 8.0 | 15.0 | 0.23 | 0.72 | 0.88 | 89 | 1011.9 |
| 20260505163029 | 47 | 73 | 7.0 | 13.0 | 0.21 | 0.72 | 0.86 | 89 | 1011.9 |